Terminal Aerodrome Forecast
Issued by NWS Pittsburgh, PA

Current Version | Previous Version | Text Only | Print | Product List | Glossary Off
Versions: 1 2 3 4 5 6 7 8 9 10 11 12 13 14 15 16 17 18 19 20 21 22 23 24 25 26 27 28 29

993
FTUS41 KPBZ 121137
TAFPIT
TAF
KPIT 121137Z 1212/1318 26012G25KT 6SM -SN OVC010
      TEMPO 1212/1215 1SM -SN BKN008
     FM121700 28014G30KT P6SM OVC025
     FM130100 30015G28KT 5SM -SN OVC010
     FM130800 29012G20KT P6SM BKN015=

USA.gov is the U.S. government's official web portal to all federal, state and local government web resources and services.